Fort Necessity, Louisiana
Current Conditions -  °F | °C
As of 7:06 PM on Friday 19 Dec 2014 (Local Time) from KMLU Reporting Station
Overcast Overcast  
Wind Chill: 43°   Ceiling: 700
Heat Index: 47°   Visibility: 9mi
Dew Point: 45°   Wind: 9mph
Humidity: 93%   Direction: 30°NNE
Pressure: 30.19"   Gusts: NA
Location:  32.05°N, 91.82°W
Report Text: KMLU 200106Z 03008KT 9SM OVC007 08/07 A3019 RMK AO2 CIG 006V010 T00830072
Loading
Personal Weather Stations






























Interactive Weather Map New forecast layout! Learn more

10-Day Weather Forecast

Advertisements
Track Severe Weather on mobile